Corinth, Mississippi
Current Conditions -  °F | °C
As of 10:55 AM on Thursday 23 Oct 2014 (Local Time) from KCRX Reporting Station
Clear Clear  
Wind Chill: 55°   Ceiling: Unl
Heat Index: 55°   Visibility: 10mi
Dew Point: 45°   Wind: 3mph
Humidity: 67%   Direction: NA
Pressure: 30.2"   Gusts: NA
Location:  34.93°N, 88.53°W
Report Text: KCRX 231555Z AUTO VRB03KT 10SM CLR 13/07 A3020 RMK AO2
Loading
Personal Weather Stations






























Interactive Weather Map New forecast layout! Learn more

10-Day Weather Forecast

Advertisements
Track Severe Weather on mobile